sensor_id;sensor_type;location;lat;lon;timestamp;temperature;humidity
15900;DHT22;8048;50.644;6.184;2023-02-28T00:00:18;1.70;81.20
15900;DHT22;8048;50.644;6.184;2023-02-28T00:02:44;1.70;81.80
15900;DHT22;8048;50.644;6.184;2023-02-28T00:05:13;1.60;81.70
15900;DHT22;8048;50.644;6.184;2023-02-28T00:07:39;1.40;82.20
15900;DHT22;8048;50.644;6.184;2023-02-28T00:10:06;1.50;82.20
15900;DHT22;8048;50.644;6.184;2023-02-28T00:12:33;1.50;82.10
15900;DHT22;8048;50.644;6.184;2023-02-28T00:14:59;1.40;83.40
15900;DHT22;8048;50.644;6.184;2023-02-28T00:17:24;1.40;83.20
15900;DHT22;8048;50.644;6.184;2023-02-28T00:19:51;1.30;83.20
15900;DHT22;8048;50.644;6.184;2023-02-28T00:22:20;1.30;84.10
15900;DHT22;8048;50.644;6.184;2023-02-28T00:24:46;1.40;84.90
15900;DHT22;8048;50.644;6.184;2023-02-28T00:27:13;1.50;84.50
15900;DHT22;8048;50.644;6.184;2023-02-28T00:29:39;1.40;83.10
15900;DHT22;8048;50.644;6.184;2023-02-28T00:32:05;1.40;83.00
15900;DHT22;8048;50.644;6.184;2023-02-28T00:34:31;1.40;83.10
15900;DHT22;8048;50.644;6.184;2023-02-28T00:37:06;1.40;83.40
15900;DHT22;8048;50.644;6.184;2023-02-28T00:39:34;1.30;83.90
15900;DHT22;8048;50.644;6.184;2023-02-28T00:42:00;1.30;83.70
15900;DHT22;8048;50.644;6.184;2023-02-28T00:44:26;1.30;85.20
15900;DHT22;8048;50.644;6.184;2023-02-28T00:46:52;1.30;84.60
15900;DHT22;8048;50.644;6.184;2023-02-28T00:49:19;1.30;85.20
15900;DHT22;8048;50.644;6.184;2023-02-28T00:51:46;1.30;85.40
15900;DHT22;8048;50.644;6.184;2023-02-28T00:54:11;1.20;84.80
15900;DHT22;8048;50.644;6.184;2023-02-28T00:56:37;1.20;86.40
15900;DHT22;8048;50.644;6.184;2023-02-28T00:59:03;1.30;85.80
15900;DHT22;8048;50.644;6.184;2023-02-28T01:01:28;1.20;85.60
15900;DHT22;8048;50.644;6.184;2023-02-28T01:03:54;1.20;85.50
15900;DHT22;8048;50.644;6.184;2023-02-28T01:06:19;1.10;85.10
15900;DHT22;8048;50.644;6.184;2023-02-28T01:08:45;1.00;85.30
15900;DHT22;8048;50.644;6.184;2023-02-28T01:11:12;1.00;85.70
15900;DHT22;8048;50.644;6.184;2023-02-28T01:13:38;0.90;86.00
15900;DHT22;8048;50.644;6.184;2023-02-28T01:16:04;0.80;86.10
15900;DHT22;8048;50.644;6.184;2023-02-28T01:18:29;0.80;86.40
15900;DHT22;8048;50.644;6.184;2023-02-28T01:20:56;0.80;87.20
15900;DHT22;8048;50.644;6.184;2023-02-28T01:23:22;0.80;87.20
15900;DHT22;8048;50.644;6.184;2023-02-28T01:25:51;0.90;86.70
15900;DHT22;8048;50.644;6.184;2023-02-28T01:28:17;0.80;86.70
15900;DHT22;8048;50.644;6.184;2023-02-28T01:30:46;0.70;87.20
15900;DHT22;8048;50.644;6.184;2023-02-28T01:33:12;0.70;87.70
15900;DHT22;8048;50.644;6.184;2023-02-28T01:35:37;0.70;88.10
15900;DHT22;8048;50.644;6.184;2023-02-28T01:38:03;0.80;87.50
15900;DHT22;8048;50.644;6.184;2023-02-28T01:40:29;0.70;88.00
15900;DHT22;8048;50.644;6.184;2023-02-28T01:42:54;0.80;87.50
15900;DHT22;8048;50.644;6.184;2023-02-28T01:45:25;0.70;87.20
15900;DHT22;8048;50.644;6.184;2023-02-28T01:47:55;0.60;87.20
15900;DHT22;8048;50.644;6.184;2023-02-28T01:50:24;0.50;87.50
15900;DHT22;8048;50.644;6.184;2023-02-28T01:52:51;0.50;88.90
15900;DHT22;8048;50.644;6.184;2023-02-28T01:55:21;0.40;89.20
15900;DHT22;8048;50.644;6.184;2023-02-28T01:57:52;0.30;89.60
15900;DHT22;8048;50.644;6.184;2023-02-28T02:00:21;0.30;90.00
15900;DHT22;8048;50.644;6.184;2023-02-28T02:02:51;0.20;90.20
15900;DHT22;8048;50.644;6.184;2023-02-28T02:05:21;0.20;90.30
15900;DHT22;8048;50.644;6.184;2023-02-28T02:07:50;0.10;90.20
15900;DHT22;8048;50.644;6.184;2023-02-28T02:10:24;0.10;90.40
15900;DHT22;8048;50.644;6.184;2023-02-28T02:16:09;0.00;90.70
15900;DHT22;8048;50.644;6.184;2023-02-28T02:27:17;-0.20;91.30
15900;DHT22;8048;50.644;6.184;2023-02-28T02:33:04;-0.30;91.20
15900;DHT22;8048;50.644;6.184;2023-02-28T02:35:47;-0.40;91.40
15900;DHT22;8048;50.644;6.184;2023-02-28T02:38:24;-0.40;91.70
15900;DHT22;8048;50.644;6.184;2023-02-28T02:43:48;-0.50;91.80
15900;DHT22;8048;50.644;6.184;2023-02-28T02:48:48;-0.50;92.10
15900;DHT22;8048;50.644;6.184;2023-02-28T02:51:17;-0.60;92.30
15900;DHT22;8048;50.644;6.184;2023-02-28T02:54:08;-0.60;92.10
15900;DHT22;8048;50.644;6.184;2023-02-28T02:56:36;-0.60;92.40
15900;DHT22;8048;50.644;6.184;2023-02-28T02:59:07;-0.60;92.30
15900;DHT22;8048;50.644;6.184;2023-02-28T03:01:34;-0.60;92.40
15900;DHT22;8048;50.644;6.184;2023-02-28T03:04:05;-0.60;92.20
15900;DHT22;8048;50.644;6.184;2023-02-28T03:06:32;-0.60;92.40
15900;DHT22;8048;50.644;6.184;2023-02-28T03:09:00;-0.60;92.40
15900;DHT22;8048;50.644;6.184;2023-02-28T03:11:25;-0.70;92.30
15900;DHT22;8048;50.644;6.184;2023-02-28T03:20:12;-0.80;92.50
15900;DHT22;8048;50.644;6.184;2023-02-28T03:23:16;-0.90;92.10
15900;DHT22;8048;50.644;6.184;2023-02-28T03:28:32;-0.90;92.50
15900;DHT22;8048;50.644;6.184;2023-02-28T03:31:21;-0.80;92.30
15900;DHT22;8048;50.644;6.184;2023-02-28T03:33:54;-0.80;92.60
15900;DHT22;8048;50.644;6.184;2023-02-28T03:36:28;-0.80;92.60
15900;DHT22;8048;50.644;6.184;2023-02-28T03:39:09;-0.80;92.60
15900;DHT22;8048;50.644;6.184;2023-02-28T03:41:55;-0.80;92.40
15900;DHT22;8048;50.644;6.184;2023-02-28T03:44:43;-0.80;92.30
15900;DHT22;8048;50.644;6.184;2023-02-28T03:47:17;-0.80;92.20
15900;DHT22;8048;50.644;6.184;2023-02-28T03:49:49;-0.80;92.50
15900;DHT22;8048;50.644;6.184;2023-02-28T03:52:18;-0.80;92.50
15900;DHT22;8048;50.644;6.184;2023-02-28T03:54:50;-0.80;92.50
15900;DHT22;8048;50.644;6.184;2023-02-28T03:57:32;-0.90;92.40
15900;DHT22;8048;50.644;6.184;2023-02-28T04:00:08;-0.90;92.50
15900;DHT22;8048;50.644;6.184;2023-02-28T04:02:35;-0.90;92.40
15900;DHT22;8048;50.644;6.184;2023-02-28T04:05:01;-0.90;92.30
15900;DHT22;8048;50.644;6.184;2023-02-28T04:07:29;-0.90;92.10
15900;DHT22;8048;50.644;6.184;2023-02-28T04:09:55;-0.90;92.30
15900;DHT22;8048;50.644;6.184;2023-02-28T04:12:21;-0.90;92.10
15900;DHT22;8048;50.644;6.184;2023-02-28T04:14:48;-0.90;92.10
15900;DHT22;8048;50.644;6.184;2023-02-28T04:17:14;-1.00;92.20
15900;DHT22;8048;50.644;6.184;2023-02-28T04:19:40;-0.90;91.80
15900;DHT22;8048;50.644;6.184;2023-02-28T04:22:05;-1.00;91.90
15900;DHT22;8048;50.644;6.184;2023-02-28T04:24:31;-1.00;92.30
15900;DHT22;8048;50.644;6.184;2023-02-28T04:26:57;-1.00;92.40
15900;DHT22;8048;50.644;6.184;2023-02-28T04:29:27;-1.00;92.50
15900;DHT22;8048;50.644;6.184;2023-02-28T04:31:53;-1.00;92.70
15900;DHT22;8048;50.644;6.184;2023-02-28T04:34:20;-1.00;92.60
15900;DHT22;8048;50.644;6.184;2023-02-28T04:36:46;-1.00;92.50
15900;DHT22;8048;50.644;6.184;2023-02-28T04:39:15;-0.90;92.60
15900;DHT22;8048;50.644;6.184;2023-02-28T04:41:41;-0.90;92.60
15900;DHT22;8048;50.644;6.184;2023-02-28T04:44:06;-1.00;92.60
15900;DHT22;8048;50.644;6.184;2023-02-28T04:46:32;-1.00;92.60
15900;DHT22;8048;50.644;6.184;2023-02-28T04:48:57;-1.00;92.80
15900;DHT22;8048;50.644;6.184;2023-02-28T04:51:24;-1.10;92.80
15900;DHT22;8048;50.644;6.184;2023-02-28T04:53:49;-1.10;92.80
15900;DHT22;8048;50.644;6.184;2023-02-28T04:56:17;-1.00;92.80
15900;DHT22;8048;50.644;6.184;2023-02-28T04:58:43;-1.00;93.30
15900;DHT22;8048;50.644;6.184;2023-02-28T05:01:27;-1.00;93.00
15900;DHT22;8048;50.644;6.184;2023-02-28T05:03:54;-1.00;93.10
15900;DHT22;8048;50.644;6.184;2023-02-28T05:06:21;-1.10;93.10
15900;DHT22;8048;50.644;6.184;2023-02-28T05:08:48;-1.10;93.10
15900;DHT22;8048;50.644;6.184;2023-02-28T05:11:29;-1.10;93.00
15900;DHT22;8048;50.644;6.184;2023-02-28T05:13:59;-1.10;93.00
15900;DHT22;8048;50.644;6.184;2023-02-28T05:16:24;-1.10;92.70
15900;DHT22;8048;50.644;6.184;2023-02-28T05:18:50;-1.10;92.60
15900;DHT22;8048;50.644;6.184;2023-02-28T05:21:33;-1.10;92.10
15900;DHT22;8048;50.644;6.184;2023-02-28T05:24:06;-1.10;91.90
15900;DHT22;8048;50.644;6.184;2023-02-28T05:26:35;-1.10;92.40
15900;DHT22;8048;50.644;6.184;2023-02-28T05:29:01;-1.10;92.20
15900;DHT22;8048;50.644;6.184;2023-02-28T05:31:27;-1.00;91.90
15900;DHT22;8048;50.644;6.184;2023-02-28T05:33:52;-1.00;92.00
15900;DHT22;8048;50.644;6.184;2023-02-28T05:36:18;-1.00;92.00
15900;DHT22;8048;50.644;6.184;2023-02-28T05:38:49;-1.00;92.10
15900;DHT22;8048;50.644;6.184;2023-02-28T05:41:16;-1.00;92.00
15900;DHT22;8048;50.644;6.184;2023-02-28T05:43:41;-1.00;91.70
15900;DHT22;8048;50.644;6.184;2023-02-28T05:46:09;-0.90;91.40
15900;DHT22;8048;50.644;6.184;2023-02-28T05:48:36;-0.90;91.70
15900;DHT22;8048;50.644;6.184;2023-02-28T05:51:03;-1.00;91.70
15900;DHT22;8048;50.644;6.184;2023-02-28T05:53:29;-1.00;91.30
15900;DHT22;8048;50.644;6.184;2023-02-28T05:55:55;-1.00;91.60
15900;DHT22;8048;50.644;6.184;2023-02-28T05:58:21;-1.00;91.50
15900;DHT22;8048;50.644;6.184;2023-02-28T06:00:47;-1.10;91.20
15900;DHT22;8048;50.644;6.184;2023-02-28T06:03:13;-1.10;91.20
15900;DHT22;8048;50.644;6.184;2023-02-28T06:05:39;-1.10;91.30
15900;DHT22;8048;50.644;6.184;2023-02-28T06:08:04;-1.10;91.30
15900;DHT22;8048;50.644;6.184;2023-02-28T06:10:34;-1.10;91.60
15900;DHT22;8048;50.644;6.184;2023-02-28T06:13:01;-1.20;91.50
15900;DHT22;8048;50.644;6.184;2023-02-28T06:15:28;-1.20;91.50
15900;DHT22;8048;50.644;6.184;2023-02-28T06:17:53;-1.20;91.90
15900;DHT22;8048;50.644;6.184;2023-02-28T06:20:19;-1.30;91.50
15900;DHT22;8048;50.644;6.184;2023-02-28T06:22:44;-1.30;91.10
15900;DHT22;8048;50.644;6.184;2023-02-28T06:25:10;-1.30;91.10
15900;DHT22;8048;50.644;6.184;2023-02-28T06:27:36;-1.30;91.10
15900;DHT22;8048;50.644;6.184;2023-02-28T06:30:01;-1.40;91.20
15900;DHT22;8048;50.644;6.184;2023-02-28T06:32:27;-1.40;91.30
15900;DHT22;8048;50.644;6.184;2023-02-28T06:34:53;-1.30;91.20
15900;DHT22;8048;50.644;6.184;2023-02-28T06:37:18;-1.30;91.10
15900;DHT22;8048;50.644;6.184;2023-02-28T06:39:44;-1.40;91.30
15900;DHT22;8048;50.644;6.184;2023-02-28T06:42:10;-1.30;91.80
15900;DHT22;8048;50.644;6.184;2023-02-28T06:44:35;-1.30;91.60
15900;DHT22;8048;50.644;6.184;2023-02-28T06:47:02;-1.30;91.40
15900;DHT22;8048;50.644;6.184;2023-02-28T06:49:30;-1.30;91.20
15900;DHT22;8048;50.644;6.184;2023-02-28T06:51:55;-1.30;91.10
15900;DHT22;8048;50.644;6.184;2023-02-28T06:54:21;-1.30;91.30
15900;DHT22;8048;50.644;6.184;2023-02-28T06:56:47;-1.40;91.40
15900;DHT22;8048;50.644;6.184;2023-02-28T06:59:13;-1.40;91.30
15900;DHT22;8048;50.644;6.184;2023-02-28T07:01:39;-1.30;90.90
15900;DHT22;8048;50.644;6.184;2023-02-28T07:04:06;-1.30;90.70
15900;DHT22;8048;50.644;6.184;2023-02-28T07:06:32;-1.30;91.10
15900;DHT22;8048;50.644;6.184;2023-02-28T07:08:57;-1.20;91.70
15900;DHT22;8048;50.644;6.184;2023-02-28T07:11:25;-1.10;92.00
15900;DHT22;8048;50.644;6.184;2023-02-28T07:13:54;-1.00;91.90
15900;DHT22;8048;50.644;6.184;2023-02-28T07:16:21;-0.90;91.20
15900;DHT22;8048;50.644;6.184;2023-02-28T07:18:48;-0.80;91.60
15900;DHT22;8048;50.644;6.184;2023-02-28T07:21:14;-0.70;91.10
15900;DHT22;8048;50.644;6.184;2023-02-28T07:23:40;-0.60;91.10
15900;DHT22;8048;50.644;6.184;2023-02-28T07:26:10;-0.60;90.10
15900;DHT22;8048;50.644;6.184;2023-02-28T07:28:36;-0.60;89.90
15900;DHT22;8048;50.644;6.184;2023-02-28T07:31:06;-0.50;90.10
15900;DHT22;8048;50.644;6.184;2023-02-28T07:33:32;-0.50;89.20
15900;DHT22;8048;50.644;6.184;2023-02-28T07:36:11;-0.40;90.70
15900;DHT22;8048;50.644;6.184;2023-02-28T07:38:41;-0.40;90.30
15900;DHT22;8048;50.644;6.184;2023-02-28T07:41:08;-0.40;89.50
15900;DHT22;8048;50.644;6.184;2023-02-28T07:43:34;-0.40;90.10
15900;DHT22;8048;50.644;6.184;2023-02-28T07:46:08;-0.30;88.30
15900;DHT22;8048;50.644;6.184;2023-02-28T07:48:34;-0.20;88.70
15900;DHT22;8048;50.644;6.184;2023-02-28T07:51:00;-0.10;90.00
15900;DHT22;8048;50.644;6.184;2023-02-28T07:55:57;0.10;89.60
15900;DHT22;8048;50.644;6.184;2023-02-28T07:58:24;0.20;87.60
15900;DHT22;8048;50.644;6.184;2023-02-28T08:00:50;0.10;86.20
15900;DHT22;8048;50.644;6.184;2023-02-28T08:03:17;0.10;87.90
15900;DHT22;8048;50.644;6.184;2023-02-28T08:05:43;0.20;87.00
15900;DHT22;8048;50.644;6.184;2023-02-28T08:08:09;0.10;85.40
15900;DHT22;8048;50.644;6.184;2023-02-28T08:10:34;0.20;88.10
15900;DHT22;8048;50.644;6.184;2023-02-28T08:13:00;0.40;87.10
15900;DHT22;8048;50.644;6.184;2023-02-28T08:15:26;0.50;88.50
15900;DHT22;8048;50.644;6.184;2023-02-28T08:17:52;0.70;87.90
15900;DHT22;8048;50.644;6.184;2023-02-28T08:20:17;0.80;87.60
15900;DHT22;8048;50.644;6.184;2023-02-28T08:22:43;1.00;86.20
15900;DHT22;8048;50.644;6.184;2023-02-28T08:25:09;1.10;86.80
15900;DHT22;8048;50.644;6.184;2023-02-28T08:27:35;1.20;85.50
15900;DHT22;8048;50.644;6.184;2023-02-28T08:30:00;1.30;84.80
15900;DHT22;8048;50.644;6.184;2023-02-28T08:32:26;1.40;86.80
15900;DHT22;8048;50.644;6.184;2023-02-28T08:34:51;1.60;86.00
15900;DHT22;8048;50.644;6.184;2023-02-28T08:37:17;1.70;84.30
15900;DHT22;8048;50.644;6.184;2023-02-28T08:39:42;1.90;84.30
15900;DHT22;8048;50.644;6.184;2023-02-28T08:42:08;2.00;82.60
15900;DHT22;8048;50.644;6.184;2023-02-28T08:44:34;2.20;83.30
15900;DHT22;8048;50.644;6.184;2023-02-28T08:46:59;2.30;80.10
15900;DHT22;8048;50.644;6.184;2023-02-28T08:49:25;2.30;79.50
15900;DHT22;8048;50.644;6.184;2023-02-28T08:51:50;2.40;77.80
15900;DHT22;8048;50.644;6.184;2023-02-28T08:54:16;2.50;78.60
15900;DHT22;8048;50.644;6.184;2023-02-28T08:56:45;2.60;77.90
15900;DHT22;8048;50.644;6.184;2023-02-28T08:59:11;2.70;77.90
15900;DHT22;8048;50.644;6.184;2023-02-28T09:01:37;2.60;70.80
15900;DHT22;8048;50.644;6.184;2023-02-28T09:04:02;2.50;73.60
15900;DHT22;8048;50.644;6.184;2023-02-28T09:06:28;2.60;76.00
15900;DHT22;8048;50.644;6.184;2023-02-28T09:08:57;2.70;72.70
15900;DHT22;8048;50.644;6.184;2023-02-28T09:11:27;2.70;73.60
15900;DHT22;8048;50.644;6.184;2023-02-28T09:13:53;2.60;77.50
15900;DHT22;8048;50.644;6.184;2023-02-28T09:16:18;3.00;75.20
15900;DHT22;8048;50.644;6.184;2023-02-28T09:18:44;3.30;75.20
15900;DHT22;8048;50.644;6.184;2023-02-28T09:21:13;3.50;70.90
15900;DHT22;8048;50.644;6.184;2023-02-28T09:23:43;3.70;72.00
15900;DHT22;8048;50.644;6.184;2023-02-28T09:26:23;3.90;72.30
15900;DHT22;8048;50.644;6.184;2023-02-28T09:28:49;4.00;65.50
15900;DHT22;8048;50.644;6.184;2023-02-28T09:31:17;4.10;67.90
15900;DHT22;8048;50.644;6.184;2023-02-28T09:33:46;3.80;62.30
15900;DHT22;8048;50.644;6.184;2023-02-28T09:36:12;3.90;67.60
15900;DHT22;8048;50.644;6.184;2023-02-28T09:38:38;4.00;63.70
15900;DHT22;8048;50.644;6.184;2023-02-28T09:41:12;4.10;68.00
15900;DHT22;8048;50.644;6.184;2023-02-28T09:43:42;4.30;67.80
15900;DHT22;8048;50.644;6.184;2023-02-28T09:48:46;4.80;68.60
15900;DHT22;8048;50.644;6.184;2023-02-28T09:51:30;5.00;64.60
15900;DHT22;8048;50.644;6.184;2023-02-28T09:53:57;5.20;63.80
15900;DHT22;8048;50.644;6.184;2023-02-28T09:56:27;5.40;63.90
15900;DHT22;8048;50.644;6.184;2023-02-28T09:58:58;5.80;68.40
15900;DHT22;8048;50.644;6.184;2023-02-28T10:06:51;6.10;65.80
15900;DHT22;8048;50.644;6.184;2023-02-28T10:09:24;5.90;59.70
15900;DHT22;8048;50.644;6.184;2023-02-28T10:11:52;6.20;59.20
15900;DHT22;8048;50.644;6.184;2023-02-28T10:14:22;6.60;66.30
15900;DHT22;8048;50.644;6.184;2023-02-28T10:16:58;7.00;62.50
15900;DHT22;8048;50.644;6.184;2023-02-28T10:19:35;7.60;59.40
15900;DHT22;8048;50.644;6.184;2023-02-28T10:22:12;7.70;57.70
15900;DHT22;8048;50.644;6.184;2023-02-28T10:24:42;8.00;58.10
15900;DHT22;8048;50.644;6.184;2023-02-28T10:27:18;8.00;56.00
15900;DHT22;8048;50.644;6.184;2023-02-28T10:29:54;8.20;58.70
15900;DHT22;8048;50.644;6.184;2023-02-28T10:32:23;8.60;55.00
15900;DHT22;8048;50.644;6.184;2023-02-28T10:35:17;8.20;54.00
15900;DHT22;8048;50.644;6.184;2023-02-28T10:37:44;8.40;55.40
15900;DHT22;8048;50.644;6.184;2023-02-28T10:43:05;8.00;51.80
15900;DHT22;8048;50.644;6.184;2023-02-28T10:46:02;7.90;56.40
15900;DHT22;8048;50.644;6.184;2023-02-28T10:48:37;7.90;57.50
15900;DHT22;8048;50.644;6.184;2023-02-28T10:51:09;8.00;53.50
15900;DHT22;8048;50.644;6.184;2023-02-28T10:53:48;8.00;54.90
15900;DHT22;8048;50.644;6.184;2023-02-28T10:56:20;7.90;53.50
15900;DHT22;8048;50.644;6.184;2023-02-28T11:01:45;7.70;55.30
15900;DHT22;8048;50.644;6.184;2023-02-28T11:07:04;7.90;53.20
15900;DHT22;8048;50.644;6.184;2023-02-28T11:09:37;8.30;54.20
15900;DHT22;8048;50.644;6.184;2023-02-28T11:12:06;8.70;52.20
15900;DHT22;8048;50.644;6.184;2023-02-28T11:14:36;9.30;52.80
15900;DHT22;8048;50.644;6.184;2023-02-28T11:17:29;9.70;53.80
15900;DHT22;8048;50.644;6.184;2023-02-28T11:20:06;10.40;54.50
15900;DHT22;8048;50.644;6.184;2023-02-28T11:22:39;10.80;52.40
15900;DHT22;8048;50.644;6.184;2023-02-28T11:25:16;10.10;48.30
15900;DHT22;8048;50.644;6.184;2023-02-28T11:27:59;9.60;53.30
15900;DHT22;8048;50.644;6.184;2023-02-28T11:33:01;9.90;56.20
15900;DHT22;8048;50.644;6.184;2023-02-28T11:35:37;10.10;53.10
15900;DHT22;8048;50.644;6.184;2023-02-28T11:38:07;9.40;51.90
15900;DHT22;8048;50.644;6.184;2023-02-28T11:41:27;8.80;51.50
15900;DHT22;8048;50.644;6.184;2023-02-28T11:49:04;7.70;52.30
15900;DHT22;8048;50.644;6.184;2023-02-28T12:00:12;10.20;53.20
15900;DHT22;8048;50.644;6.184;2023-02-28T12:02:59;9.90;52.70
15900;DHT22;8048;50.644;6.184;2023-02-28T12:05:40;9.70;54.70
15900;DHT22;8048;50.644;6.184;2023-02-28T12:13:29;10.50;51.70
15900;DHT22;8048;50.644;6.184;2023-02-28T12:21:22;11.10;50.70
15900;DHT22;8048;50.644;6.184;2023-02-28T12:29:10;10.90;51.10
15900;DHT22;8048;50.644;6.184;2023-02-28T12:31:39;10.40;48.10
15900;DHT22;8048;50.644;6.184;2023-02-28T12:34:13;9.50;48.50
15900;DHT22;8048;50.644;6.184;2023-02-28T12:36:43;9.70;50.60
15900;DHT22;8048;50.644;6.184;2023-02-28T12:39:30;10.30;48.40
15900;DHT22;8048;50.644;6.184;2023-02-28T12:42:11;10.50;50.10
15900;DHT22;8048;50.644;6.184;2023-02-28T12:44:46;11.00;47.70
15900;DHT22;8048;50.644;6.184;2023-02-28T12:47:16;10.90;49.40
15900;DHT22;8048;50.644;6.184;2023-02-28T12:50:05;10.60;47.80
15900;DHT22;8048;50.644;6.184;2023-02-28T12:55:35;9.80;50.00
15900;DHT22;8048;50.644;6.184;2023-02-28T13:01:29;10.00;49.20
15900;DHT22;8048;50.644;6.184;2023-02-28T13:09:52;10.20;52.00
15900;DHT22;8048;50.644;6.184;2023-02-28T13:12:19;10.60;48.60
15900;DHT22;8048;50.644;6.184;2023-02-28T13:14:46;11.30;50.70
15900;DHT22;8048;50.644;6.184;2023-02-28T13:17:18;11.80;52.00
15900;DHT22;8048;50.644;6.184;2023-02-28T13:22:22;12.60;49.00
15900;DHT22;8048;50.644;6.184;2023-02-28T13:27:57;13.30;50.60
15900;DHT22;8048;50.644;6.184;2023-02-28T13:35:45;13.40;48.50
15900;DHT22;8048;50.644;6.184;2023-02-28T13:38:24;13.50;50.70
15900;DHT22;8048;50.644;6.184;2023-02-28T13:40:50;13.30;44.80
15900;DHT22;8048;50.644;6.184;2023-02-28T13:43:18;13.50;47.30
15900;DHT22;8048;50.644;6.184;2023-02-28T13:46:21;14.00;50.00
15900;DHT22;8048;50.644;6.184;2023-02-28T13:48:46;14.10;48.90
15900;DHT22;8048;50.644;6.184;2023-02-28T13:51:41;14.00;48.60
15900;DHT22;8048;50.644;6.184;2023-02-28T14:05:21;12.60;47.60
15900;DHT22;8048;50.644;6.184;2023-02-28T14:07:53;12.80;49.10
15900;DHT22;8048;50.644;6.184;2023-02-28T14:15:39;13.10;44.10
15900;DHT22;8048;50.644;6.184;2023-02-28T14:18:36;12.90;46.60
15900;DHT22;8048;50.644;6.184;2023-02-28T14:21:24;13.00;44.60
15900;DHT22;8048;50.644;6.184;2023-02-28T14:24:01;13.00;45.90
15900;DHT22;8048;50.644;6.184;2023-02-28T14:26:37;13.20;47.10
15900;DHT22;8048;50.644;6.184;2023-02-28T14:37:34;12.70;48.40
15900;DHT22;8048;50.644;6.184;2023-02-28T14:40:04;13.00;48.20
15900;DHT22;8048;50.644;6.184;2023-02-28T14:42:31;13.30;49.60
15900;DHT22;8048;50.644;6.184;2023-02-28T14:44:57;13.40;46.20
15900;DHT22;8048;50.644;6.184;2023-02-28T14:47:24;12.50;43.90
15900;DHT22;8048;50.644;6.184;2023-02-28T14:49:51;12.20;47.70
15900;DHT22;8048;50.644;6.184;2023-02-28T14:52:31;11.90;46.00
15900;DHT22;8048;50.644;6.184;2023-02-28T14:54:59;12.00;46.70
15900;DHT22;8048;50.644;6.184;2023-02-28T14:57:34;12.10;47.40
15900;DHT22;8048;50.644;6.184;2023-02-28T15:00:21;12.10;47.50
15900;DHT22;8048;50.644;6.184;2023-02-28T15:02:47;12.20;47.10
15900;DHT22;8048;50.644;6.184;2023-02-28T15:07:38;12.10;46.00
15900;DHT22;8048;50.644;6.184;2023-02-28T15:10:13;12.00;47.00
15900;DHT22;8048;50.644;6.184;2023-02-28T15:12:40;12.10;47.70
15900;DHT22;8048;50.644;6.184;2023-02-28T15:15:15;12.00;47.30
15900;DHT22;8048;50.644;6.184;2023-02-28T15:17:43;11.60;47.30
15900;DHT22;8048;50.644;6.184;2023-02-28T15:20:13;11.50;47.80
15900;DHT22;8048;50.644;6.184;2023-02-28T15:22:40;11.10;45.30
15900;DHT22;8048;50.644;6.184;2023-02-28T15:25:06;10.80;49.10
15900;DHT22;8048;50.644;6.184;2023-02-28T15:27:38;10.80;45.20
15900;DHT22;8048;50.644;6.184;2023-02-28T15:30:08;10.80;47.20
15900;DHT22;8048;50.644;6.184;2023-02-28T15:32:39;11.10;50.10
15900;DHT22;8048;50.644;6.184;2023-02-28T15:35:37;11.20;49.30
15900;DHT22;8048;50.644;6.184;2023-02-28T15:38:16;11.40;48.10
15900;DHT22;8048;50.644;6.184;2023-02-28T15:40:49;11.30;45.50
15900;DHT22;8048;50.644;6.184;2023-02-28T15:43:32;10.70;46.50
15900;DHT22;8048;50.644;6.184;2023-02-28T15:48:37;10.00;47.00
15900;DHT22;8048;50.644;6.184;2023-02-28T15:51:14;9.70;47.60
15900;DHT22;8048;50.644;6.184;2023-02-28T15:53:48;9.40;49.30
15900;DHT22;8048;50.644;6.184;2023-02-28T15:56:26;9.50;50.30
15900;DHT22;8048;50.644;6.184;2023-02-28T15:59:05;9.40;49.30
15900;DHT22;8048;50.644;6.184;2023-02-28T16:01:38;9.40;51.30
15900;DHT22;8048;50.644;6.184;2023-02-28T16:04:19;9.00;49.80
15900;DHT22;8048;50.644;6.184;2023-02-28T16:06:46;8.70;48.60
15900;DHT22;8048;50.644;6.184;2023-02-28T16:09:14;8.60;49.00
15900;DHT22;8048;50.644;6.184;2023-02-28T16:11:48;8.50;48.70
15900;DHT22;8048;50.644;6.184;2023-02-28T16:14:20;8.40;50.00
15900;DHT22;8048;50.644;6.184;2023-02-28T16:16:50;8.40;49.00
15900;DHT22;8048;50.644;6.184;2023-02-28T16:19:17;8.10;48.60
15900;DHT22;8048;50.644;6.184;2023-02-28T16:21:43;8.00;52.70
15900;DHT22;8048;50.644;6.184;2023-02-28T16:24:08;8.00;50.30
15900;DHT22;8048;50.644;6.184;2023-02-28T16:26:34;7.80;48.50
15900;DHT22;8048;50.644;6.184;2023-02-28T16:29:01;7.40;50.10
15900;DHT22;8048;50.644;6.184;2023-02-28T16:31:27;7.30;49.70
15900;DHT22;8048;50.644;6.184;2023-02-28T16:33:53;7.20;50.30
15900;DHT22;8048;50.644;6.184;2023-02-28T16:36:21;7.20;51.20
15900;DHT22;8048;50.644;6.184;2023-02-28T16:38:48;7.00;51.30
15900;DHT22;8048;50.644;6.184;2023-02-28T16:41:22;7.10;51.00
15900;DHT22;8048;50.644;6.184;2023-02-28T16:43:50;7.00;52.80
15900;DHT22;8048;50.644;6.184;2023-02-28T16:46:16;7.00;51.60
15900;DHT22;8048;50.644;6.184;2023-02-28T16:48:43;6.90;51.10
15900;DHT22;8048;50.644;6.184;2023-02-28T16:51:14;6.90;51.80
15900;DHT22;8048;50.644;6.184;2023-02-28T16:53:40;6.80;51.90
15900;DHT22;8048;50.644;6.184;2023-02-28T16:56:06;6.60;52.20
15900;DHT22;8048;50.644;6.184;2023-02-28T16:58:32;6.50;51.20
15900;DHT22;8048;50.644;6.184;2023-02-28T17:01:01;6.50;51.00
15900;DHT22;8048;50.644;6.184;2023-02-28T17:03:28;6.40;53.00
15900;DHT22;8048;50.644;6.184;2023-02-28T17:05:54;6.30;51.60
15900;DHT22;8048;50.644;6.184;2023-02-28T17:08:20;6.10;52.80
15900;DHT22;8048;50.644;6.184;2023-02-28T17:10:45;6.00;52.80
15900;DHT22;8048;50.644;6.184;2023-02-28T17:13:11;6.10;51.60
15900;DHT22;8048;50.644;6.184;2023-02-28T17:15:37;6.10;51.60
15900;DHT22;8048;50.644;6.184;2023-02-28T17:18:04;6.00;53.20
15900;DHT22;8048;50.644;6.184;2023-02-28T17:20:30;6.10;55.40
15900;DHT22;8048;50.644;6.184;2023-02-28T17:22:56;6.00;54.00
15900;DHT22;8048;50.644;6.184;2023-02-28T17:25:22;6.10;54.60
15900;DHT22;8048;50.644;6.184;2023-02-28T17:27:48;6.00;54.30
15900;DHT22;8048;50.644;6.184;2023-02-28T17:30:16;5.90;53.30
15900;DHT22;8048;50.644;6.184;2023-02-28T17:32:42;5.80;54.70
15900;DHT22;8048;50.644;6.184;2023-02-28T17:35:08;5.70;55.50
15900;DHT22;8048;50.644;6.184;2023-02-28T17:37:34;5.60;54.90
15900;DHT22;8048;50.644;6.184;2023-02-28T17:40:00;5.50;54.20
15900;DHT22;8048;50.644;6.184;2023-02-28T17:42:25;5.20;54.70
15900;DHT22;8048;50.644;6.184;2023-02-28T17:44:51;5.10;55.60
15900;DHT22;8048;50.644;6.184;2023-02-28T17:47:16;5.10;56.00
15900;DHT22;8048;50.644;6.184;2023-02-28T17:49:42;4.90;55.70
15900;DHT22;8048;50.644;6.184;2023-02-28T17:52:08;4.90;57.20
15900;DHT22;8048;50.644;6.184;2023-02-28T17:54:34;4.70;57.70
15900;DHT22;8048;50.644;6.184;2023-02-28T17:56:59;4.70;57.60
15900;DHT22;8048;50.644;6.184;2023-02-28T17:59:25;4.50;57.40
15900;DHT22;8048;50.644;6.184;2023-02-28T18:01:51;4.50;57.90
15900;DHT22;8048;50.644;6.184;2023-02-28T18:04:16;4.50;58.40
15900;DHT22;8048;50.644;6.184;2023-02-28T18:06:43;4.40;57.70
15900;DHT22;8048;50.644;6.184;2023-02-28T18:09:17;4.20;57.90
15900;DHT22;8048;50.644;6.184;2023-02-28T18:11:43;4.20;58.90
15900;DHT22;8048;50.644;6.184;2023-02-28T18:14:14;4.10;58.90
15900;DHT22;8048;50.644;6.184;2023-02-28T18:16:41;4.00;59.20
15900;DHT22;8048;50.644;6.184;2023-02-28T18:19:07;3.90;59.20
15900;DHT22;8048;50.644;6.184;2023-02-28T18:21:34;3.80;59.20
15900;DHT22;8048;50.644;6.184;2023-02-28T18:24:00;3.60;58.90